createdAt,value
2022-07-29T00:05:10.980Z,25.73
2022-07-29T00:25:14.634Z,25.42
2022-07-29T00:45:19.077Z,25.46
2022-07-29T01:05:25.654Z,25.55
2022-07-29T01:26:05.990Z,25.36
2022-07-29T01:46:21.511Z,25.05
2022-07-29T02:06:25.533Z,25.30
2022-07-29T02:26:29.792Z,25.12
2022-07-29T02:46:36.096Z,24.96
2022-07-29T03:06:40.042Z,24.86
2022-07-29T03:26:43.634Z,24.33
2022-07-29T03:46:47.463Z,24.24
2022-07-29T04:06:50.860Z,24.10
2022-07-29T04:26:54.670Z,23.91
2022-07-29T04:46:58.857Z,23.64
2022-07-29T05:07:02.192Z,23.80
2022-07-29T05:27:05.562Z,24.33
2022-07-29T05:47:08.881Z,24.74
2022-07-29T06:07:12.432Z,24.80
2022-07-29T06:27:15.918Z,25.43
2022-07-29T06:47:19.462Z,25.78
2022-07-29T07:07:22.758Z,26.23
2022-07-29T07:27:26.099Z,26.45
2022-07-29T07:47:29.856Z,27.76
2022-07-29T08:07:34.564Z,27.76
2022-07-29T08:27:45.257Z,28.34
2022-07-29T08:47:48.804Z,28.80
2022-07-29T09:07:52.620Z,37.58
2022-07-29T09:27:56.152Z,40.50
2022-07-29T09:48:04.090Z,43.49
2022-07-29T10:08:08.640Z,44.40
2022-07-29T10:28:16.013Z,41.84
2022-07-29T10:48:19.916Z,40.76
2022-07-29T11:08:27.821Z,39.27
2022-07-29T11:28:31.758Z,35.24
2022-07-29T11:48:35.037Z,34.89
2022-07-29T12:08:44.631Z,34.26
2022-07-29T12:28:49.520Z,33.29
2022-07-29T12:48:55.910Z,35.54
2022-07-29T13:09:14.883Z,36.02
2022-07-29T13:29:18.455Z,36.09
2022-07-29T13:49:21.909Z,36.76
2022-07-29T14:09:25.368Z,37.03
2022-07-29T14:29:37.560Z,36.84
2022-07-29T14:49:43.261Z,36.63
2022-07-29T15:09:49.597Z,36.29
2022-07-29T15:29:53.373Z,36.05
2022-07-29T15:49:56.770Z,35.42
2022-07-29T16:10:00.336Z,35.26
2022-07-29T16:30:05.223Z,34.90
2022-07-29T16:50:09.461Z,34.30
2022-07-29T17:10:12.931Z,33.86
2022-07-29T17:30:17.269Z,33.29
2022-07-29T17:50:20.956Z,32.69
2022-07-29T18:10:24.471Z,32.04
2022-07-29T18:30:28.902Z,31.61
2022-07-29T18:50:32.629Z,31.37
2022-07-29T19:10:35.985Z,31.01
2022-07-29T19:30:40.386Z,30.60
2022-07-29T19:50:43.837Z,29.66
2022-07-29T20:10:47.479Z,29.18
2022-07-29T20:30:50.811Z,28.64
2022-07-29T20:50:55.099Z,27.67
2022-07-29T21:10:58.472Z,27.78
2022-07-29T21:31:03.591Z,27.46
2022-07-29T21:51:07.011Z,27.08
2022-07-29T22:11:10.675Z,26.44
2022-07-29T22:31:13.859Z,26.01
2022-07-29T22:51:17.307Z,25.69
2022-07-29T23:11:20.987Z,25.47
2022-07-29T23:31:24.192Z,25.20
2022-07-29T23:51:29.280Z,25.20
